createdAt,value
2022-12-29T00:00:35.783Z,21.46
2022-12-29T00:01:35.766Z,21.45
2022-12-29T00:02:35.821Z,21.45
2022-12-29T00:03:35.798Z,21.46
2022-12-29T00:04:35.648Z,21.45
2022-12-29T00:05:35.676Z,21.45
2022-12-29T00:06:35.625Z,21.44
2022-12-29T00:07:35.639Z,21.44
2022-12-29T00:08:35.583Z,21.43
2022-12-29T00:09:35.619Z,21.44
2022-12-29T00:10:35.588Z,21.43
2022-12-29T00:11:35.600Z,21.44
2022-12-29T00:12:35.551Z,21.44
2022-12-29T00:13:35.557Z,21.44
2022-12-29T00:14:35.524Z,21.43
2022-12-29T00:15:35.591Z,21.42
2022-12-29T00:16:35.514Z,21.41
2022-12-29T00:17:35.498Z,21.41
2022-12-29T00:18:35.439Z,21.41
2022-12-29T00:19:35.477Z,21.41
2022-12-29T00:20:35.466Z,21.41
2022-12-29T00:21:35.467Z,21.41
2022-12-29T00:22:35.398Z,21.41
2022-12-29T00:23:35.461Z,21.41
2022-12-29T00:24:35.373Z,21.41
2022-12-29T00:25:35.406Z,21.40
2022-12-29T00:26:35.339Z,21.38
2022-12-29T00:27:35.373Z,21.38
2022-12-29T00:28:35.330Z,21.37
2022-12-29T00:29:35.326Z,21.38
2022-12-29T00:30:35.308Z,21.39
2022-12-29T00:31:35.353Z,21.40
2022-12-29T00:32:35.282Z,21.39
2022-12-29T00:33:35.303Z,21.39
2022-12-29T00:34:35.245Z,21.37
2022-12-29T00:35:35.266Z,21.38
2022-12-29T00:36:35.233Z,21.37
2022-12-29T00:37:35.232Z,21.36
2022-12-29T00:38:35.195Z,21.36
2022-12-29T00:39:35.230Z,21.34
2022-12-29T00:40:35.188Z,21.35
2022-12-29T00:41:35.178Z,21.35
2022-12-29T00:42:35.135Z,21.35
2022-12-29T00:43:35.183Z,21.33
2022-12-29T00:44:35.139Z,21.33
2022-12-29T00:45:35.128Z,21.33
2022-12-29T00:46:35.210Z,21.33
2022-12-29T00:47:35.115Z,21.35
2022-12-29T00:48:35.096Z,21.34
2022-12-29T00:49:35.134Z,21.34
2022-12-29T00:50:35.074Z,21.35
2022-12-29T00:51:35.090Z,21.34
2022-12-29T00:52:35.030Z,21.34
2022-12-29T00:53:35.069Z,21.33
2022-12-29T00:54:35.024Z,21.32
2022-12-29T00:55:35.013Z,21.33
2022-12-29T00:56:34.976Z,21.33
2022-12-29T00:57:35.024Z,21.32
2022-12-29T00:58:34.963Z,21.32
2022-12-29T00:59:34.978Z,21.32
2022-12-29T01:00:34.944Z,21.31
2022-12-29T01:01:35.258Z,21.32
2022-12-29T01:02:35.032Z,21.32
2022-12-29T01:03:34.956Z,21.32
2022-12-29T01:04:34.901Z,21.31
2022-12-29T01:05:34.934Z,21.30
2022-12-29T01:06:34.905Z,21.30
2022-12-29T01:07:34.911Z,21.29
2022-12-29T01:08:34.846Z,21.27
2022-12-29T01:09:34.877Z,21.26
2022-12-29T01:10:34.857Z,21.26
2022-12-29T01:11:34.843Z,21.25
2022-12-29T01:12:34.813Z,21.26
2022-12-29T01:13:34.837Z,21.26
2022-12-29T01:14:34.801Z,21.26
2022-12-29T01:15:34.811Z,21.26
2022-12-29T01:16:34.854Z,21.26
2022-12-29T01:17:34.873Z,21.26
2022-12-29T01:18:34.735Z,21.26
2022-12-29T01:19:34.756Z,21.28
2022-12-29T01:20:34.717Z,21.27
2022-12-29T01:21:34.740Z,21.26
2022-12-29T01:22:34.675Z,21.25
2022-12-29T01:23:34.715Z,21.25
2022-12-29T01:24:34.668Z,21.24
2022-12-29T01:25:34.680Z,21.24
2022-12-29T01:26:34.634Z,21.25
2022-12-29T01:27:34.665Z,21.24
2022-12-29T01:28:34.636Z,21.24
2022-12-29T01:29:34.650Z,21.24
2022-12-29T01:30:34.588Z,21.24
2022-12-29T01:31:34.654Z,21.25
2022-12-29T01:32:34.600Z,21.25
2022-12-29T01:33:34.600Z,21.24
2022-12-29T01:34:34.537Z,21.24
2022-12-29T01:35:34.585Z,21.23
2022-12-29T01:36:34.535Z,21.23
2022-12-29T01:37:34.547Z,21.23
2022-12-29T01:38:34.496Z,21.23
2022-12-29T01:39:34.522Z,21.21
2022-12-29T01:40:34.459Z,21.20
2022-12-29T01:41:34.459Z,21.20
2022-12-29T01:42:34.435Z,21.22
2022-12-29T01:43:34.444Z,21.21
2022-12-29T01:44:34.397Z,21.21
2022-12-29T01:45:34.420Z,21.20
2022-12-29T01:46:34.348Z,21.21
2022-12-29T01:47:34.389Z,21.21
2022-12-29T01:48:34.356Z,21.20
2022-12-29T01:49:34.372Z,21.19
2022-12-29T01:50:34.323Z,21.19
2022-12-29T01:51:34.332Z,21.19
2022-12-29T01:52:34.295Z,21.18
2022-12-29T01:53:34.307Z,21.18
2022-12-29T01:54:34.292Z,21.17
2022-12-29T01:55:34.288Z,21.18
2022-12-29T01:56:34.255Z,21.18
2022-12-29T01:57:34.303Z,21.17
2022-12-29T01:58:34.287Z,21.18
2022-12-29T01:59:34.225Z,21.17
2022-12-29T02:00:34.362Z,21.16
2022-12-29T02:01:34.444Z,21.16
2022-12-29T02:02:34.286Z,21.16
2022-12-29T02:03:34.253Z,21.15
2022-12-29T02:04:34.170Z,21.15
2022-12-29T02:05:34.155Z,21.14
2022-12-29T02:06:34.137Z,21.13
2022-12-29T02:07:34.146Z,21.12
2022-12-29T02:08:34.320Z,21.11
2022-12-29T02:09:34.146Z,21.12
2022-12-29T02:10:34.208Z,21.12
2022-12-29T02:11:34.100Z,21.12
2022-12-29T02:12:34.095Z,21.12
2022-12-29T02:13:34.106Z,21.12
2022-12-29T02:14:34.069Z,21.12
2022-12-29T02:15:34.079Z,21.12
2022-12-29T02:16:34.102Z,21.11
2022-12-29T02:17:34.071Z,21.11
2022-12-29T02:18:34.044Z,21.10
2022-12-29T02:19:34.045Z,21.09
2022-12-29T02:20:33.980Z,21.09
2022-12-29T02:21:33.998Z,21.10
2022-12-29T02:22:33.995Z,21.09
2022-12-29T02:23:33.958Z,21.10
2022-12-29T02:24:33.954Z,21.10
2022-12-29T02:25:33.953Z,21.10
2022-12-29T02:26:33.926Z,21.10
2022-12-29T02:27:33.930Z,21.09
2022-12-29T02:28:33.916Z,21.08
2022-12-29T02:29:33.887Z,21.09
2022-12-29T02:30:33.879Z,21.09
2022-12-29T02:31:33.976Z,21.09
2022-12-29T02:32:33.854Z,21.08
2022-12-29T02:33:33.879Z,21.08
2022-12-29T02:34:33.861Z,21.08
2022-12-29T02:35:33.922Z,21.07
2022-12-29T02:36:33.850Z,21.07
2022-12-29T02:37:33.836Z,21.08
2022-12-29T02:38:33.826Z,21.06
2022-12-29T02:39:33.864Z,21.06
2022-12-29T02:40:33.835Z,21.06
2022-12-29T02:41:33.843Z,21.05
2022-12-29T02:42:33.812Z,21.04
2022-12-29T02:43:33.848Z,21.05
2022-12-29T02:44:33.785Z,21.06
2022-12-29T02:45:33.845Z,21.05
2022-12-29T02:46:33.741Z,21.06
2022-12-29T02:47:33.769Z,21.06
2022-12-29T02:48:33.758Z,21.05
2022-12-29T02:49:33.753Z,21.04
2022-12-29T02:50:33.720Z,21.04
2022-12-29T02:51:33.732Z,21.05
2022-12-29T02:52:33.721Z,21.05
2022-12-29T02:53:33.709Z,21.03
2022-12-29T02:54:33.690Z,21.03
2022-12-29T02:55:33.715Z,21.03
2022-12-29T02:56:33.690Z,21.02
2022-12-29T02:57:33.692Z,21.01
2022-12-29T02:58:33.679Z,20.99
2022-12-29T02:59:33.663Z,20.99
2022-12-29T03:00:33.639Z,21.01
2022-12-29T03:01:33.750Z,21.00
2022-12-29T03:02:33.876Z,21.01
2022-12-29T03:03:33.746Z,21.01
2022-12-29T03:04:33.605Z,21.01
2022-12-29T03:05:33.635Z,21.01
2022-12-29T03:06:33.607Z,21.02
2022-12-29T03:07:33.586Z,21.01
2022-12-29T03:08:33.584Z,21.00
2022-12-29T03:09:33.610Z,20.99
2022-12-29T03:10:33.565Z,20.99
2022-12-29T03:11:33.654Z,20.99
2022-12-29T03:12:33.536Z,20.99
2022-12-29T03:13:33.579Z,21.01
2022-12-29T03:14:33.562Z,21.00
2022-12-29T03:15:33.550Z,20.99
2022-12-29T03:16:33.556Z,20.98
2022-12-29T03:17:33.536Z,20.98
2022-12-29T03:18:33.524Z,20.98
2022-12-29T03:19:33.526Z,20.98
2022-12-29T03:20:33.514Z,20.97
2022-12-29T03:21:33.513Z,20.97
2022-12-29T03:22:33.490Z,20.97
2022-12-29T03:23:33.501Z,20.97
2022-12-29T03:24:33.476Z,20.96
2022-12-29T03:25:33.494Z,20.95
2022-12-29T03:26:33.480Z,20.95
2022-12-29T03:27:33.495Z,20.94
2022-12-29T03:28:33.464Z,20.94
2022-12-29T03:29:33.463Z,20.93
2022-12-29T03:30:33.549Z,20.94
2022-12-29T03:31:33.502Z,20.94
2022-12-29T03:32:33.475Z,20.94
2022-12-29T03:33:33.451Z,20.93
2022-12-29T03:34:33.435Z,20.93
2022-12-29T03:35:33.478Z,20.93
2022-12-29T03:36:33.438Z,20.94
2022-12-29T03:37:33.458Z,20.95
2022-12-29T03:38:33.436Z,20.94
2022-12-29T03:39:33.451Z,20.94
2022-12-29T03:40:33.456Z,20.93
2022-12-29T03:41:33.436Z,20.93
2022-12-29T03:42:33.406Z,20.92
2022-12-29T03:43:33.432Z,20.92
2022-12-29T03:44:33.424Z,20.92
2022-12-29T03:45:33.447Z,20.93
2022-12-29T03:46:33.466Z,20.92
2022-12-29T03:47:33.436Z,20.91
2022-12-29T03:48:33.434Z,20.91
2022-12-29T03:49:33.434Z,20.91
2022-12-29T03:50:33.396Z,20.91
2022-12-29T03:51:33.433Z,20.90
2022-12-29T03:52:33.407Z,20.91
2022-12-29T03:53:33.407Z,20.90
2022-12-29T03:54:33.401Z,20.89
2022-12-29T03:55:33.446Z,20.90
2022-12-29T03:56:33.414Z,20.90
2022-12-29T03:57:33.427Z,20.90
2022-12-29T03:58:33.396Z,20.88
2022-12-29T03:59:33.441Z,20.88
2022-12-29T04:00:33.408Z,20.88
2022-12-29T04:01:33.519Z,20.90
2022-12-29T04:02:33.587Z,20.89
2022-12-29T04:03:33.468Z,20.88
2022-12-29T04:04:33.403Z,20.86
2022-12-29T04:05:33.408Z,20.88
2022-12-29T04:06:33.379Z,20.88
2022-12-29T04:07:33.389Z,20.87
2022-12-29T04:08:33.355Z,20.87
2022-12-29T04:09:33.392Z,20.86
2022-12-29T04:10:33.363Z,20.85
2022-12-29T04:11:34.495Z,20.87
2022-12-29T04:12:33.364Z,20.86
2022-12-29T04:13:33.368Z,20.86
2022-12-29T04:14:33.366Z,20.85
2022-12-29T04:15:33.409Z,20.87
2022-12-29T04:16:33.355Z,20.86
2022-12-29T04:17:33.402Z,20.85
2022-12-29T04:18:33.370Z,20.84
2022-12-29T04:19:33.398Z,20.83
2022-12-29T04:20:33.335Z,20.81
2022-12-29T04:21:33.376Z,20.81
2022-12-29T04:22:33.341Z,20.82
2022-12-29T04:23:33.350Z,20.83
2022-12-29T04:24:33.353Z,20.83
2022-12-29T04:25:33.387Z,20.84
2022-12-29T04:26:33.386Z,20.85
2022-12-29T04:27:33.372Z,20.85
2022-12-29T04:28:33.363Z,20.83
2022-12-29T04:29:33.366Z,20.83
2022-12-29T04:30:33.379Z,20.83
2022-12-29T04:31:33.399Z,20.82
2022-12-29T04:32:33.348Z,20.82
2022-12-29T04:33:33.370Z,20.81
2022-12-29T04:34:33.365Z,20.82
2022-12-29T04:35:33.380Z,20.82
2022-12-29T04:36:33.362Z,20.84
2022-12-29T04:37:33.391Z,20.83
2022-12-29T04:38:33.359Z,20.84
2022-12-29T04:39:33.416Z,20.82
2022-12-29T04:40:33.411Z,20.81
2022-12-29T04:41:33.391Z,20.81
2022-12-29T04:42:33.396Z,20.81
2022-12-29T04:43:33.425Z,20.81
2022-12-29T04:44:33.417Z,20.82
2022-12-29T04:45:33.419Z,20.81
2022-12-29T04:46:33.471Z,20.81
2022-12-29T04:47:33.450Z,20.79
2022-12-29T04:48:33.419Z,20.80
2022-12-29T04:49:33.420Z,20.80
2022-12-29T04:50:33.420Z,20.80
2022-12-29T04:51:33.437Z,20.79
2022-12-29T04:52:33.449Z,20.79
2022-12-29T04:53:33.456Z,20.78
2022-12-29T04:54:33.458Z,20.78
2022-12-29T04:55:33.473Z,20.78
2022-12-29T04:56:33.498Z,20.77
2022-12-29T04:57:33.483Z,20.77
2022-12-29T04:58:33.498Z,20.78
2022-12-29T04:59:33.519Z,20.77
2022-12-29T05:00:33.547Z,20.79
2022-12-29T05:01:33.721Z,20.78
2022-12-29T05:02:33.726Z,20.78
2022-12-29T05:03:33.586Z,20.78
2022-12-29T05:04:33.531Z,20.76
2022-12-29T05:05:33.551Z,20.77
2022-12-29T05:06:33.564Z,20.77
2022-12-29T05:07:33.579Z,20.77
2022-12-29T05:08:33.574Z,20.77
2022-12-29T05:09:33.605Z,20.76
2022-12-29T05:10:33.572Z,20.76
2022-12-29T05:11:33.571Z,20.76
2022-12-29T05:12:33.571Z,20.76
2022-12-29T05:13:33.622Z,20.75
2022-12-29T05:14:33.606Z,20.75
2022-12-29T05:15:33.587Z,20.74
2022-12-29T05:16:33.685Z,20.76
2022-12-29T05:17:33.634Z,20.75
2022-12-29T05:18:33.597Z,20.75
2022-12-29T05:19:33.628Z,20.75
2022-12-29T05:20:33.604Z,20.74
2022-12-29T05:21:33.612Z,20.73
2022-12-29T05:22:33.610Z,20.75
2022-12-29T05:23:33.625Z,20.75
2022-12-29T05:24:33.616Z,20.73
2022-12-29T05:25:33.629Z,20.73
2022-12-29T05:26:33.629Z,20.73
2022-12-29T05:27:33.619Z,20.72
2022-12-29T05:28:33.615Z,20.72
2022-12-29T05:29:33.650Z,20.72
2022-12-29T05:30:33.621Z,20.72
2022-12-29T05:31:33.684Z,20.72
2022-12-29T05:32:33.645Z,20.72
2022-12-29T05:33:33.644Z,20.71
2022-12-29T05:34:33.639Z,20.71
2022-12-29T05:35:33.639Z,20.71
2022-12-29T05:36:37.765Z,20.69
2022-12-29T05:37:33.646Z,20.70
2022-12-29T05:38:33.616Z,20.70
2022-12-29T05:39:33.655Z,20.71
2022-12-29T05:40:33.632Z,20.70
2022-12-29T05:41:33.609Z,20.70
2022-12-29T05:42:33.606Z,20.69
2022-12-29T05:43:33.636Z,20.71
2022-12-29T05:44:33.633Z,20.71
2022-12-29T05:45:33.629Z,20.69
2022-12-29T05:46:33.699Z,20.70
2022-12-29T05:47:33.640Z,20.68
2022-12-29T05:48:37.863Z,20.69
2022-12-29T05:49:33.614Z,20.67
2022-12-29T05:50:33.588Z,20.68
2022-12-29T05:51:33.619Z,20.69
2022-12-29T05:52:33.615Z,20.71
2022-12-29T05:53:33.639Z,20.72
2022-12-29T05:54:33.580Z,20.72
2022-12-29T05:55:33.698Z,20.71
2022-12-29T05:56:33.654Z,20.71
2022-12-29T05:57:33.627Z,20.73
2022-12-29T05:58:33.617Z,20.75
2022-12-29T05:59:33.640Z,20.79
2022-12-29T06:00:33.627Z,20.82
2022-12-29T06:01:33.715Z,20.83
2022-12-29T06:02:33.772Z,20.85
2022-12-29T06:03:33.762Z,20.87
2022-12-29T06:04:33.649Z,20.89
2022-12-29T06:05:33.651Z,20.93
2022-12-29T06:06:33.638Z,20.95
2022-12-29T06:07:33.655Z,20.98
2022-12-29T06:08:33.650Z,21.03
2022-12-29T06:09:33.655Z,21.07
2022-12-29T06:10:33.650Z,21.10
2022-12-29T06:11:33.655Z,21.14
2022-12-29T06:12:33.637Z,21.17
2022-12-29T06:13:33.663Z,21.21
2022-12-29T06:14:33.600Z,21.25
2022-12-29T06:15:33.621Z,21.28
2022-12-29T06:16:33.646Z,21.33
2022-12-29T06:17:33.602Z,21.35
2022-12-29T06:18:33.568Z,21.38
2022-12-29T06:19:33.580Z,21.42
2022-12-29T06:20:33.520Z,21.46
2022-12-29T06:21:33.570Z,21.50
2022-12-29T06:22:33.530Z,21.54
2022-12-29T06:23:33.527Z,21.59
2022-12-29T06:24:33.491Z,21.63
2022-12-29T06:25:33.524Z,21.67
2022-12-29T06:26:33.471Z,21.71
2022-12-29T06:27:33.453Z,21.75
2022-12-29T06:28:33.430Z,21.78
2022-12-29T06:29:33.463Z,21.82
2022-12-29T06:30:33.421Z,21.85
2022-12-29T06:31:33.416Z,21.87
2022-12-29T06:32:33.357Z,21.89
2022-12-29T06:33:33.403Z,21.90
2022-12-29T06:34:33.331Z,21.91
2022-12-29T06:35:33.343Z,21.93
2022-12-29T06:36:33.318Z,21.93
2022-12-29T06:37:33.347Z,21.93
2022-12-29T06:38:33.307Z,21.93
2022-12-29T06:39:33.316Z,21.93
2022-12-29T06:40:33.244Z,21.92
2022-12-29T06:41:33.318Z,21.93
2022-12-29T06:42:33.294Z,21.92
2022-12-29T06:43:33.253Z,21.91
2022-12-29T06:44:33.203Z,21.90
2022-12-29T06:45:33.253Z,21.91
2022-12-29T06:46:33.181Z,21.90
2022-12-29T06:47:33.214Z,21.89
2022-12-29T06:48:33.205Z,21.88
2022-12-29T06:49:33.153Z,21.88
2022-12-29T06:50:33.148Z,21.86
2022-12-29T06:51:33.175Z,21.86
2022-12-29T06:52:33.122Z,21.85
2022-12-29T06:53:33.167Z,21.83
2022-12-29T06:54:33.094Z,21.83
2022-12-29T06:55:33.172Z,21.82
2022-12-29T06:56:33.095Z,21.81
2022-12-29T06:57:33.073Z,21.80
2022-12-29T06:58:33.060Z,21.81
2022-12-29T06:59:33.070Z,21.80
2022-12-29T07:00:33.041Z,21.79
2022-12-29T07:01:33.138Z,21.79
2022-12-29T07:02:33.138Z,21.78
2022-12-29T07:03:33.119Z,21.78
2022-12-29T07:04:33.012Z,21.77
2022-12-29T07:05:33.004Z,21.76
2022-12-29T07:06:32.967Z,21.75
2022-12-29T07:07:32.992Z,21.77
2022-12-29T07:08:32.960Z,21.77
2022-12-29T07:09:32.983Z,21.77
2022-12-29T07:10:32.944Z,21.80
2022-12-29T07:11:32.951Z,21.81
2022-12-29T07:12:32.968Z,21.81
2022-12-29T07:13:32.933Z,21.82
2022-12-29T07:14:37.344Z,21.83
2022-12-29T07:15:33.902Z,21.83
2022-12-29T07:16:32.975Z,21.83
2022-12-29T07:17:32.904Z,21.85
2022-12-29T07:18:32.863Z,21.86
2022-12-29T07:19:32.858Z,21.88
2022-12-29T07:20:32.795Z,21.88
2022-12-29T07:21:32.867Z,21.90
2022-12-29T07:22:32.795Z,21.92
2022-12-29T07:23:32.820Z,21.92
2022-12-29T07:24:32.757Z,21.92
2022-12-29T07:25:32.792Z,21.93
2022-12-29T07:26:36.332Z,21.94
2022-12-29T07:27:32.761Z,21.95
2022-12-29T07:28:32.721Z,21.96
2022-12-29T07:29:32.747Z,21.97
2022-12-29T07:30:32.694Z,21.97
2022-12-29T07:31:32.786Z,21.98
2022-12-29T07:32:32.658Z,21.99
2022-12-29T07:33:32.686Z,22.00
2022-12-29T07:34:32.665Z,22.01
2022-12-29T07:35:32.664Z,22.02
2022-12-29T07:36:34.859Z,22.02
2022-12-29T07:37:32.641Z,22.03
2022-12-29T07:38:32.617Z,22.02
2022-12-29T07:39:32.620Z,22.03
2022-12-29T07:40:32.555Z,22.03
2022-12-29T07:41:32.587Z,22.04
2022-12-29T07:42:32.650Z,22.03
2022-12-29T07:43:32.596Z,22.03
2022-12-29T07:44:32.503Z,22.03
2022-12-29T07:45:32.531Z,22.02
2022-12-29T07:46:56.253Z,22.01
2022-12-29T07:47:33.538Z,22.00
2022-12-29T07:48:32.489Z,21.99
2022-12-29T07:49:32.489Z,21.98
2022-12-29T07:50:32.431Z,21.97
2022-12-29T07:51:32.493Z,21.96
2022-12-29T07:52:32.442Z,21.96
2022-12-29T07:53:32.410Z,21.95
2022-12-29T07:54:32.368Z,21.95
2022-12-29T07:55:32.412Z,21.94
2022-12-29T07:56:32.350Z,21.96
2022-12-29T07:57:32.523Z,21.96
2022-12-29T07:58:32.312Z,21.95
2022-12-29T07:59:32.370Z,21.95
2022-12-29T08:00:32.306Z,21.95
2022-12-29T08:01:32.405Z,21.96
2022-12-29T08:02:32.328Z,21.97
2022-12-29T08:03:32.331Z,21.98
2022-12-29T08:04:32.268Z,21.99
2022-12-29T08:05:32.274Z,22.01
2022-12-29T08:06:32.216Z,22.01
2022-12-29T08:07:32.253Z,22.01
2022-12-29T08:08:32.229Z,22.01
2022-12-29T08:09:32.238Z,22.03
2022-12-29T08:10:32.191Z,22.04
2022-12-29T08:11:32.212Z,22.05
2022-12-29T08:12:32.164Z,22.05
2022-12-29T08:13:32.191Z,22.06
2022-12-29T08:14:32.141Z,22.07
2022-12-29T08:15:32.697Z,22.08
2022-12-29T08:16:32.180Z,22.08
2022-12-29T08:17:32.131Z,22.09
2022-12-29T08:18:32.085Z,22.09
2022-12-29T08:19:32.106Z,22.08
2022-12-29T08:20:32.037Z,22.09
2022-12-29T08:21:32.093Z,22.10
2022-12-29T08:22:32.012Z,22.09
2022-12-29T08:23:32.050Z,22.09
2022-12-29T08:24:31.971Z,22.09
2022-12-29T08:25:32.010Z,22.08
2022-12-29T08:26:31.978Z,22.09
2022-12-29T08:27:31.962Z,22.09
2022-12-29T08:28:31.949Z,22.10
2022-12-29T08:29:32.005Z,22.08
2022-12-29T08:30:31.924Z,22.09
2022-12-29T08:31:32.016Z,22.07
2022-12-29T08:32:31.875Z,22.07
2022-12-29T08:33:31.896Z,22.07
2022-12-29T08:34:31.852Z,22.07
2022-12-29T08:35:31.897Z,22.09
2022-12-29T08:36:31.815Z,22.11
2022-12-29T08:37:31.860Z,22.12
2022-12-29T08:38:31.789Z,22.14
2022-12-29T08:39:31.805Z,22.15
2022-12-29T08:40:31.763Z,22.18
2022-12-29T08:41:31.783Z,22.18
2022-12-29T08:42:31.734Z,22.17
2022-12-29T08:43:31.745Z,22.20
2022-12-29T08:44:31.695Z,22.21
2022-12-29T08:45:31.751Z,22.21
2022-12-29T08:46:31.715Z,22.21
2022-12-29T08:47:31.698Z,22.21
2022-12-29T08:48:31.624Z,22.20
2022-12-29T08:49:31.650Z,22.19
2022-12-29T08:50:31.611Z,22.20
2022-12-29T08:51:31.652Z,22.20
2022-12-29T08:52:31.594Z,22.18
2022-12-29T08:53:31.616Z,22.17
2022-12-29T08:54:31.546Z,22.17
2022-12-29T08:55:31.581Z,22.16
2022-12-29T08:56:31.545Z,22.15
2022-12-29T08:57:31.558Z,22.15
2022-12-29T08:58:31.504Z,22.15
2022-12-29T08:59:31.550Z,22.13
2022-12-29T09:00:31.523Z,22.11
2022-12-29T09:01:31.728Z,22.11
2022-12-29T09:02:31.702Z,22.11
2022-12-29T09:04:04.269Z,22.10
2022-12-29T09:04:32.790Z,22.09
2022-12-29T09:05:31.452Z,22.09
2022-12-29T09:06:35.104Z,22.10
2022-12-29T09:07:32.481Z,22.07
2022-12-29T09:08:31.442Z,22.07
2022-12-29T09:09:31.463Z,22.07
2022-12-29T09:10:31.411Z,22.06
2022-12-29T09:11:31.451Z,22.05
2022-12-29T09:12:36.095Z,22.03
2022-12-29T09:13:32.423Z,22.02
2022-12-29T09:14:31.359Z,22.02
2022-12-29T09:15:31.378Z,22.00
2022-12-29T09:16:31.388Z,22.01
2022-12-29T09:17:31.354Z,22.01
2022-12-29T09:18:31.296Z,22.00
2022-12-29T09:19:31.353Z,22.00
2022-12-29T09:20:31.284Z,22.00
2022-12-29T09:21:31.315Z,21.97
2022-12-29T09:22:31.262Z,21.96
2022-12-29T09:23:31.282Z,21.97
2022-12-29T09:24:31.208Z,21.99
2022-12-29T09:25:31.261Z,21.98
2022-12-29T09:26:31.203Z,21.97
2022-12-29T09:27:31.212Z,21.97
2022-12-29T09:28:31.149Z,21.98
2022-12-29T09:29:31.169Z,21.97
2022-12-29T09:30:31.144Z,21.99
2022-12-29T09:31:31.176Z,21.98
2022-12-29T09:32:33.846Z,21.94
2022-12-29T09:33:31.120Z,21.91
2022-12-29T09:34:31.087Z,21.90
2022-12-29T09:35:31.094Z,21.90
2022-12-29T09:36:31.046Z,21.90
2022-12-29T09:37:31.063Z,21.89
2022-12-29T09:38:31.010Z,21.89
2022-12-29T09:39:31.013Z,21.89
2022-12-29T09:40:31.001Z,21.90
2022-12-29T09:41:31.006Z,21.89
2022-12-29T09:42:30.956Z,21.88
2022-12-29T09:43:30.978Z,21.87
2022-12-29T09:44:30.931Z,21.87
2022-12-29T09:45:30.944Z,21.87
2022-12-29T09:46:30.939Z,21.89
2022-12-29T09:47:30.914Z,21.91
2022-12-29T09:48:30.863Z,21.90
2022-12-29T09:49:30.894Z,21.90
2022-12-29T09:50:30.840Z,21.91
2022-12-29T09:51:30.833Z,21.92
2022-12-29T09:52:30.793Z,21.93
2022-12-29T09:53:30.824Z,21.92
2022-12-29T09:54:30.750Z,21.93
2022-12-29T09:55:30.785Z,21.93
2022-12-29T09:56:30.749Z,21.93
2022-12-29T09:57:30.742Z,21.93
2022-12-29T09:58:30.719Z,21.91
2022-12-29T09:59:30.744Z,21.90
2022-12-29T10:00:30.753Z,21.88
2022-12-29T10:01:30.860Z,21.86
2022-12-29T10:02:30.807Z,21.84
2022-12-29T10:03:30.735Z,21.83
2022-12-29T10:04:30.634Z,21.83
2022-12-29T10:05:30.662Z,21.85
2022-12-29T10:06:30.620Z,21.85
2022-12-29T10:07:31.152Z,21.83
2022-12-29T10:08:30.899Z,21.83
2022-12-29T10:09:30.615Z,21.82
2022-12-29T10:10:30.589Z,21.79
2022-12-29T10:11:30.612Z,21.78
2022-12-29T10:12:30.583Z,21.74
2022-12-29T10:13:30.599Z,21.72
2022-12-29T10:14:30.557Z,21.71
2022-12-29T10:15:30.604Z,21.71
2022-12-29T10:16:30.557Z,21.68
2022-12-29T10:17:30.563Z,21.68
2022-12-29T10:18:30.520Z,21.67
2022-12-29T10:19:33.334Z,21.66
2022-12-29T10:20:30.516Z,21.66
2022-12-29T10:21:30.519Z,21.65
2022-12-29T10:22:30.467Z,21.62
2022-12-29T10:23:30.514Z,21.61
2022-12-29T10:24:30.504Z,21.61
2022-12-29T10:25:32.975Z,21.60
2022-12-29T10:26:30.483Z,21.60
2022-12-29T10:27:30.457Z,21.59
2022-12-29T10:28:30.430Z,21.58
2022-12-29T10:29:30.454Z,21.59
2022-12-29T10:30:30.447Z,21.57
2022-12-29T10:31:30.489Z,21.57
2022-12-29T10:32:37.472Z,21.57
2022-12-29T10:33:30.428Z,21.55
2022-12-29T10:34:30.421Z,21.56
2022-12-29T10:35:30.405Z,21.57
2022-12-29T10:36:30.497Z,21.57
2022-12-29T10:37:34.056Z,21.58
2022-12-29T10:38:30.499Z,21.56
2022-12-29T10:39:30.370Z,21.56
2022-12-29T10:40:30.584Z,21.55
2022-12-29T10:41:30.388Z,21.53
2022-12-29T10:42:30.576Z,21.52
2022-12-29T10:43:30.332Z,21.51
2022-12-29T10:44:30.327Z,21.51
2022-12-29T10:45:30.281Z,21.50
2022-12-29T10:46:30.352Z,21.50
2022-12-29T10:47:30.269Z,21.50
2022-12-29T10:48:32.056Z,21.49
2022-12-29T10:49:30.292Z,21.49
2022-12-29T10:50:30.265Z,21.49
2022-12-29T10:51:30.310Z,21.48
2022-12-29T10:52:30.256Z,21.48
2022-12-29T10:53:30.392Z,21.48
2022-12-29T10:54:30.600Z,21.48
2022-12-29T10:55:30.360Z,21.49
2022-12-29T10:56:30.177Z,21.49
2022-12-29T10:57:30.145Z,21.50
2022-12-29T10:58:30.192Z,21.50
2022-12-29T10:59:30.140Z,21.50
2022-12-29T11:00:30.162Z,21.49
2022-12-29T11:01:30.415Z,21.47
2022-12-29T11:02:30.219Z,21.49
2022-12-29T11:03:30.212Z,21.49
2022-12-29T11:04:30.112Z,21.49
2022-12-29T11:05:30.166Z,21.49
2022-12-29T11:06:30.154Z,21.49
2022-12-29T11:07:30.077Z,21.49
2022-12-29T11:08:30.065Z,21.48
2022-12-29T11:09:41.923Z,21.48
2022-12-29T11:10:31.124Z,21.47
2022-12-29T11:11:30.019Z,21.47
2022-12-29T11:12:30.124Z,21.47
2022-12-29T11:13:36.508Z,21.47
2022-12-29T11:14:31.023Z,21.47
2022-12-29T11:15:29.989Z,21.47
2022-12-29T11:16:30.026Z,21.47
2022-12-29T11:17:29.987Z,21.48
2022-12-29T11:18:30.016Z,21.48
2022-12-29T11:19:29.993Z,21.48
2022-12-29T11:20:29.981Z,21.48
2022-12-29T11:21:30.102Z,21.49
2022-12-29T11:22:29.970Z,21.49
2022-12-29T11:23:29.985Z,21.47
2022-12-29T11:24:29.927Z,21.46
2022-12-29T11:25:29.901Z,21.46
2022-12-29T11:26:34.127Z,21.46
2022-12-29T11:27:30.893Z,21.45
2022-12-29T11:28:29.860Z,21.44
2022-12-29T11:29:29.878Z,21.45
2022-12-29T11:30:29.836Z,21.45
2022-12-29T11:31:30.065Z,21.45
2022-12-29T11:32:29.880Z,21.44
2022-12-29T11:33:29.857Z,21.45
2022-12-29T11:34:29.944Z,21.43
2022-12-29T11:35:29.836Z,21.43
2022-12-29T11:36:29.975Z,21.42
2022-12-29T11:37:29.814Z,21.41
2022-12-29T11:38:29.799Z,21.41
2022-12-29T11:39:29.836Z,21.40
2022-12-29T11:40:29.931Z,21.41
2022-12-29T11:41:29.798Z,21.40
2022-12-29T11:42:29.742Z,21.38
2022-12-29T11:43:29.786Z,21.38
2022-12-29T11:44:29.731Z,21.38
2022-12-29T11:45:29.753Z,21.38
2022-12-29T11:46:29.766Z,21.38
2022-12-29T11:47:29.731Z,21.37
2022-12-29T11:48:29.716Z,21.38
2022-12-29T11:49:29.722Z,21.37
2022-12-29T11:50:29.680Z,21.36
2022-12-29T11:51:29.871Z,21.36
2022-12-29T11:52:29.678Z,21.34
2022-12-29T11:53:29.695Z,21.33
2022-12-29T11:54:29.626Z,21.33
2022-12-29T11:55:29.787Z,21.33
2022-12-29T11:56:30.612Z,21.33
2022-12-29T11:57:29.638Z,21.34
2022-12-29T11:58:29.599Z,21.33
2022-12-29T11:59:29.599Z,21.34
2022-12-29T12:00:29.601Z,21.32
2022-12-29T12:01:29.695Z,21.31
2022-12-29T12:02:29.668Z,21.31
2022-12-29T12:03:29.656Z,21.32
2022-12-29T12:04:29.752Z,21.30
2022-12-29T12:05:29.563Z,21.31
2022-12-29T12:06:29.519Z,21.31
2022-12-29T12:07:29.531Z,21.31
2022-12-29T12:08:29.513Z,21.30
2022-12-29T12:09:29.511Z,21.30
2022-12-29T12:10:29.509Z,21.29
2022-12-29T12:11:29.511Z,21.29
2022-12-29T12:12:29.479Z,21.28
2022-12-29T12:13:29.501Z,21.28
2022-12-29T12:14:29.980Z,21.28
2022-12-29T12:15:29.455Z,21.28
2022-12-29T12:16:29.526Z,21.28
2022-12-29T12:17:29.577Z,21.27
2022-12-29T12:18:29.554Z,21.28
2022-12-29T12:19:29.438Z,21.28
2022-12-29T12:20:29.457Z,21.26
2022-12-29T12:21:29.527Z,21.28
2022-12-29T12:22:29.411Z,21.27
2022-12-29T12:23:29.537Z,21.27
2022-12-29T12:24:29.387Z,21.26
2022-12-29T12:25:29.480Z,21.26
2022-12-29T12:26:29.391Z,21.27
2022-12-29T12:27:29.412Z,21.28
2022-12-29T12:28:34.744Z,21.28
2022-12-29T12:29:30.366Z,21.27
2022-12-29T12:30:29.349Z,21.28
2022-12-29T12:31:29.423Z,21.28
2022-12-29T12:32:29.322Z,21.28
2022-12-29T12:33:29.281Z,21.28
2022-12-29T12:34:29.258Z,21.28
2022-12-29T12:35:29.340Z,21.29
2022-12-29T12:36:29.319Z,21.29
2022-12-29T12:37:29.390Z,21.29
2022-12-29T12:38:29.206Z,21.30
2022-12-29T12:39:29.348Z,21.30
2022-12-29T12:40:29.206Z,21.30
2022-12-29T12:41:29.205Z,21.29
2022-12-29T12:42:29.178Z,21.29
2022-12-29T12:43:30.354Z,21.27
2022-12-29T12:44:29.156Z,21.27
2022-12-29T12:45:29.120Z,21.25
2022-12-29T12:46:29.175Z,21.24
2022-12-29T12:47:29.123Z,21.24
2022-12-29T12:48:29.100Z,21.24
2022-12-29T12:49:29.104Z,21.23
2022-12-29T12:50:29.059Z,21.22
2022-12-29T12:51:29.081Z,21.21
2022-12-29T12:52:29.056Z,21.20